Time;durP1;ratioP1;P1;durP2;ratioP2;P2;SDS_P1;SDS_P2;PMS_P1;PMS_P2;Temp;Humidity;BMP_temperature;BMP_pressure;BME280_temperature;BME280_humidity;BME280_pressure;Samples;Min_cycle;Max_cycle;Signal;HPM_P1;HPM_P2
2022/05/02 00:00:24;;;;;;;8.70;5.80;;;8.80;99.90;;;;;;4860512;29;20101;-82
2022/05/02 00:02:50;;;;;;;8.07;5.82;;;8.80;99.90;;;;;;4860516;29;20382;-82
2022/05/02 00:05:16;;;;;;;8.02;5.93;;;8.80;99.90;;;;;;4859299;29;20025;-82
2022/05/02 00:07:42;;;;;;;7.80;5.70;;;8.80;99.90;;;;;;4859407;29;20064;-83
2022/05/02 00:10:08;;;;;;;8.68;5.68;;;8.70;99.90;;;;;;4858916;29;20034;-83
2022/05/02 00:12:34;;;;;;;7.32;5.85;;;8.70;99.90;;;;;;4859031;29;20029;-83
2022/05/02 00:15:01;;;;;;;6.97;5.35;;;8.70;99.90;;;;;;4843649;29;20040;-83
2022/05/02 00:20:11;;;;;;;8.05;6.40;;;8.70;99.90;;;;;;4860417;29;20040;-82
2022/05/02 00:22:36;;;;;;;7.13;5.43;;;8.70;99.90;;;;;;4860672;29;20065;-83
2022/05/02 00:25:03;;;;;;;8.55;5.85;;;8.60;99.90;;;;;;4859244;29;20068;-84
2022/05/02 00:27:28;;;;;;;7.50;5.80;;;8.60;99.90;;;;;;4859083;29;20029;-83
2022/05/02 00:29:54;;;;;;;7.72;5.60;;;8.60;99.90;;;;;;4860804;29;20049;-82
2022/05/02 00:32:20;;;;;;;8.23;6.10;;;8.60;99.90;;;;;;4859039;29;20400;-83
2022/05/02 00:34:45;;;;;;;7.68;5.70;;;8.60;99.90;;;;;;4859246;29;20097;-82
2022/05/02 00:37:11;;;;;;;7.40;5.35;;;8.60;99.90;;;;;;4860173;29;20034;-83
2022/05/02 00:39:37;;;;;;;8.13;6.05;;;8.60;99.90;;;;;;4864073;29;20488;-83
2022/05/02 00:42:05;;;;;;;8.18;5.80;;;8.60;99.90;;;;;;4864158;29;20494;-83
2022/05/02 00:44:31;;;;;;;7.93;5.93;;;8.60;99.90;;;;;;4862908;29;20089;-83
2022/05/02 00:46:56;;;;;;;7.68;5.50;;;8.50;99.90;;;;;;4862903;29;20143;-84
2022/05/02 00:49:22;;;;;;;6.57;5.05;;;8.60;99.90;;;;;;4864336;29;20026;-84
2022/05/02 00:51:48;;;;;;;6.63;5.03;;;8.60;99.90;;;;;;4863890;29;20032;-82
2022/05/02 00:54:13;;;;;;;8.85;6.07;;;8.60;99.90;;;;;;4846915;29;20037;-83
2022/05/02 00:56:40;;;;;;;8.65;5.63;;;8.60;99.90;;;;;;4862716;29;20307;-83
2022/05/02 00:59:06;;;;;;;6.85;5.32;;;8.60;99.90;;;;;;4862428;29;20112;-82
2022/05/02 01:01:32;;;;;;;7.50;5.50;;;8.60;99.90;;;;;;4862449;29;20064;-84
2022/05/02 01:03:57;;;;;;;7.10;5.15;;;8.60;99.90;;;;;;4862329;29;20025;-83
2022/05/02 01:09:08;;;;;;;7.53;5.68;;;8.60;99.90;;;;;;4863738;29;20125;-83
2022/05/02 01:11:37;;;;;;;8.35;5.53;;;8.60;99.90;;;;;;4863353;29;20057;-84
2022/05/02 01:14:07;;;;;;;8.02;5.57;;;8.60;99.90;;;;;;4861989;29;20025;-82
2022/05/02 01:16:32;;;;;;;7.75;5.88;;;8.60;99.90;;;;;;4861912;29;20480;-82
2022/05/02 01:18:59;;;;;;;7.95;5.55;;;8.60;99.90;;;;;;4862008;29;20030;-82
2022/05/02 01:21:27;;;;;;;8.13;5.60;;;8.60;99.90;;;;;;4863049;29;20030;-82
2022/05/02 01:23:55;;;;;;;7.90;5.80;;;8.50;99.90;;;;;;4861907;29;20040;-82
2022/05/02 01:26:21;;;;;;;9.00;5.65;;;8.60;99.90;;;;;;4861611;29;20014;-82
2022/05/02 01:28:51;;;;;;;7.68;5.38;;;8.50;99.90;;;;;;4862769;29;20113;-82
2022/05/02 01:31:18;;;;;;;8.13;5.32;;;8.60;99.90;;;;;;4861595;29;20049;-82
2022/05/02 01:33:45;;;;;;;7.97;5.70;;;8.60;99.90;;;;;;4861783;29;20030;-82
2022/05/02 01:36:12;;;;;;;7.50;5.63;;;8.60;99.90;;;;;;4862699;29;20041;-82
2022/05/02 01:38:38;;;;;;;9.93;5.97;;;8.60;99.90;;;;;;4862723;29;20033;-82
2022/05/02 01:41:05;;;;;;;7.65;5.18;;;8.60;99.90;;;;;;4861616;29;20512;-83
2022/05/02 01:43:31;;;;;;;8.35;5.75;;;8.50;99.90;;;;;;4864271;29;20488;-82
2022/05/02 01:45:58;;;;;;;7.38;5.38;;;8.50;99.90;;;;;;4864958;29;20028;-82
2022/05/02 01:48:24;;;;;;;6.30;4.72;;;8.50;99.90;;;;;;4861197;29;20025;-82
2022/05/02 01:50:49;;;;;;;7.90;5.88;;;8.50;99.90;;;;;;4860974;29;20040;-82
2022/05/02 01:53:15;;;;;;;7.63;5.97;;;8.50;99.90;;;;;;4861064;29;20071;-82
2022/05/02 01:55:40;;;;;;;8.77;5.72;;;8.40;99.90;;;;;;4861231;29;20105;-82
2022/05/02 01:58:06;;;;;;;6.85;5.38;;;8.40;99.90;;;;;;4862538;29;20049;-82
2022/05/02 02:00:32;;;;;;;7.32;5.82;;;8.40;99.90;;;;;;4861072;29;20035;-82
2022/05/02 02:02:57;;;;;;;7.47;5.45;;;8.40;99.90;;;;;;4861017;29;20450;-81
2022/05/02 02:08:07;;;;;;;7.80;6.05;;;8.40;99.90;;;;;;4862532;29;20461;-82
2022/05/02 02:10:33;;;;;;;8.27;6.35;;;8.30;99.90;;;;;;4861178;29;20033;-82
2022/05/02 02:12:59;;;;;;;8.15;6.18;;;8.30;99.90;;;;;;4861386;29;20030;-82
2022/05/02 02:15:24;;;;;;;7.60;5.85;;;8.40;99.90;;;;;;4862337;29;20041;-82
2022/05/02 02:17:50;;;;;;;8.57;5.90;;;8.30;99.90;;;;;;4862096;29;20499;-82
2022/05/02 02:20:16;;;;;;;9.27;5.90;;;8.30;99.90;;;;;;4845452;29;20037;-81
2022/05/02 02:22:41;;;;;;;8.65;6.00;;;8.30;99.90;;;;;;4860962;29;20057;-83
2022/05/02 02:25:07;;;;;;;8.00;5.65;;;8.20;99.90;;;;;;4861794;29;20025;-82
2022/05/02 02:27:33;;;;;;;8.90;5.55;;;8.20;99.90;;;;;;4861921;29;20029;-81
2022/05/02 02:29:59;;;;;;;8.00;5.85;;;8.10;99.90;;;;;;4860675;29;20105;-82
2022/05/02 02:32:26;;;;;;;8.13;5.70;;;8.10;99.90;;;;;;4860386;29;20037;-82
2022/05/02 02:34:53;;;;;;;6.88;5.47;;;8.10;99.90;;;;;;4860693;29;20472;-82
2022/05/02 02:37:19;;;;;;;8.57;6.00;;;8.10;99.90;;;;;;4860859;29;20030;-82
2022/05/02 02:39:45;;;;;;;7.43;5.32;;;8.10;99.90;;;;;;4860498;29;20030;-82
2022/05/02 02:42:10;;;;;;;7.35;5.28;;;8.10;99.90;;;;;;4861984;29;20032;-83
2022/05/02 02:44:36;;;;;;;8.18;5.95;;;8.00;99.90;;;;;;4861798;29;20109;-82
2022/05/02 02:47:02;;;;;;;7.03;5.13;;;7.90;99.90;;;;;;4861856;29;20040;-82
2022/05/02 02:49:28;;;;;;;7.70;5.78;;;7.90;99.90;;;;;;4860431;29;20029;-82
2022/05/02 02:51:54;;;;;;;9.43;6.25;;;7.80;99.90;;;;;;4861549;29;20034;-82
2022/05/02 02:54:20;;;;;;;7.18;5.63;;;7.70;99.90;;;;;;4860141;29;20488;-84
2022/05/02 02:56:46;;;;;;;8.13;6.13;;;7.70;99.90;;;;;;4860366;29;20037;-82
2022/05/02 02:59:11;;;;;;;8.25;6.03;;;7.70;99.90;;;;;;4860468;29;20022;-83
2022/05/02 03:01:37;;;;;;;8.23;5.97;;;7.60;99.90;;;;;;4860549;29;20044;-82
2022/05/02 03:06:01;;;;;;;8.30;6.00;;;7.60;99.90;;;;;;4860677;29;20112;-83
2022/05/02 03:06:49;;;;;;;8.82;6.40;;;7.60;99.90;;;;;;4861573;29;20428;-83
2022/05/02 03:09:15;;;;;;;7.85;6.25;;;7.50;99.90;;;;;;4860224;29;20485;-83
2022/05/02 03:11:41;;;;;;;7.15;5.90;;;7.50;99.90;;;;;;4845092;29;20033;-83
2022/05/02 03:14:06;;;;;;;8.20;6.68;;;7.40;99.90;;;;;;4860019;29;20025;-82
2022/05/02 03:16:32;;;;;;;8.93;6.80;;;7.40;99.90;;;;;;4861167;29;20105;-83
2022/05/02 03:18:58;;;;;;;7.68;5.85;;;7.30;99.90;;;;;;4859970;29;20575;-83
2022/05/02 03:21:23;;;;;;;8.50;6.28;;;7.30;99.90;;;;;;4860159;29;20038;-84
2022/05/02 03:23:50;;;;;;;8.63;6.28;;;7.20;99.90;;;;;;4861405;29;20049;-82
2022/05/02 03:26:15;;;;;;;8.32;6.40;;;7.20;99.90;;;;;;4859678;29;20058;-82
2022/05/02 03:28:41;;;;;;;9.02;6.80;;;7.20;99.90;;;;;;4861245;29;20469;-83
2022/05/02 03:31:07;;;;;;;7.95;6.38;;;7.20;99.90;;;;;;4860984;29;20033;-83
2022/05/02 03:33:32;;;;;;;8.60;6.65;;;7.10;99.90;;;;;;4859757;29;20096;-83
2022/05/02 03:35:58;;;;;;;9.00;6.97;;;7.10;99.90;;;;;;4859902;29;20084;-83
2022/05/02 03:38:24;;;;;;;8.05;6.10;;;7.10;99.90;;;;;;4859796;29;20029;-83
2022/05/02 03:40:49;;;;;;;9.18;6.78;;;7.00;99.90;;;;;;4860071;29;20655;-84
2022/05/02 03:43:15;;;;;;;9.32;6.72;;;7.00;99.90;;;;;;4861010;29;20030;-83
2022/05/02 03:45:41;;;;;;;8.38;6.28;;;7.00;99.90;;;;;;4859912;29;20166;-83
2022/05/02 03:48:07;;;;;;;9.80;6.90;;;7.00;99.90;;;;;;4859769;29;20036;-84
2022/05/02 03:50:33;;;;;;;7.97;6.35;;;6.90;99.90;;;;;;4859601;29;20047;-83
2022/05/02 03:52:58;;;;;;;9.40;7.38;;;6.90;99.90;;;;;;4860723;29;20058;-83
2022/05/02 03:55:24;;;;;;;8.88;6.75;;;6.80;99.90;;;;;;4859152;29;20037;-83
2022/05/02 03:57:50;;;;;;;7.88;6.28;;;6.80;99.90;;;;;;4859395;29;20033;-84
2022/05/02 04:00:16;;;;;;;9.32;7.03;;;6.80;99.90;;;;;;4860382;29;20030;-83
2022/05/02 04:02:42;;;;;;;10.10;7.22;;;6.80;99.90;;;;;;4859331;29;20056;-83
2022/05/02 04:05:08;;;;;;;8.73;6.63;;;6.70;99.90;;;;;;4859333;29;20081;-83
2022/05/02 04:07:37;;;;;;;11.50;7.13;;;6.70;99.90;;;;;;4859487;29;20136;-83
2022/05/02 04:10:04;;;;;;;9.73;7.07;;;6.70;99.90;;;;;;4860511;29;20037;-84
2022/05/02 04:12:37;;;;;;;10.27;7.82;;;6.70;99.90;;;;;;4859118;29;20128;-82
2022/05/02 04:15:07;;;;;;;8.10;6.32;;;6.70;99.90;;;;;;4859503;29;20036;-84
2022/05/02 04:17:33;;;;;;;9.07;6.97;;;6.60;99.90;;;;;;4860530;29;20128;-83
2022/05/02 04:19:59;;;;;;;9.93;7.35;;;6.60;99.90;;;;;;4860702;29;20053;-83
2022/05/02 04:22:25;;;;;;;10.13;7.57;;;6.70;99.90;;;;;;4860419;29;20043;-83
2022/05/02 04:24:50;;;;;;;10.55;7.55;;;6.60;99.90;;;;;;4859592;29;20026;-83
2022/05/02 04:27:16;;;;;;;10.30;7.53;;;6.60;99.90;;;;;;4859337;29;20499;-83
2022/05/02 04:29:41;;;;;;;10.13;7.80;;;6.60;99.90;;;;;;4860655;29;20044;-83
2022/05/02 04:32:07;;;;;;;9.60;7.55;;;6.60;99.90;;;;;;4860664;29;20112;-83
2022/05/02 04:34:33;;;;;;;9.32;7.22;;;6.50;99.90;;;;;;4859334;29;20424;-84
2022/05/02 04:36:58;;;;;;;11.70;7.55;;;6.50;99.90;;;;;;4859284;29;20037;-84
2022/05/02 04:39:24;;;;;;;10.70;7.80;;;6.50;99.90;;;;;;4859418;29;20057;-84
2022/05/02 04:41:50;;;;;;;10.45;7.30;;;6.50;99.90;;;;;;4859628;29;20392;-84
2022/05/02 04:44:15;;;;;;;9.65;7.22;;;6.50;99.90;;;;;;4858196;29;20040;-81
2022/05/02 04:46:41;;;;;;;9.85;7.57;;;6.60;99.90;;;;;;4855984;29;20033;-80
2022/05/02 04:49:07;;;;;;;11.00;8.07;;;6.60;99.90;;;;;;4863450;29;20033;-81
2022/05/02 04:51:32;;;;;;;9.25;7.20;;;6.60;99.90;;;;;;4874296;29;20119;-82
2022/05/02 04:53:58;;;;;;;11.27;7.95;;;6.60;99.90;;;;;;4874559;29;20061;-82
2022/05/02 04:56:24;;;;;;;10.68;7.05;;;6.60;99.90;;;;;;4875207;29;20074;-82
2022/05/02 04:58:50;;;;;;;9.88;7.07;;;6.60;99.90;;;;;;4875774;29;20033;-84
2022/05/02 05:01:15;;;;;;;12.07;7.18;;;6.70;99.90;;;;;;4875334;29;20722;-83
2022/05/02 05:03:42;;;;;;;9.13;6.78;;;6.70;99.90;;;;;;4876961;29;20092;-81
2022/05/02 05:06:07;;;;;;;8.80;6.75;;;6.80;99.90;;;;;;4876198;29;20503;-81
2022/05/02 05:08:33;;;;;;;9.77;7.60;;;6.80;99.90;;;;;;4875482;29;20017;-81
2022/05/02 05:11:22;;;;;;;9.70;7.20;;;6.80;99.90;;;;;;4860825;29;20037;-80
2022/05/02 05:17:30;;;;;;;9.38;7.05;;;6.90;99.90;;;;;;4876359;29;20447;-83
2022/05/02 05:20:13;;;;;;;9.75;6.53;;;7.00;99.90;;;;;;4872734;29;20029;-81
2022/05/02 05:22:42;;;;;;;10.23;6.85;;;7.10;99.90;;;;;;4858269;29;20105;-81
2022/05/02 05:25:51;;;;;;;8.25;6.25;;;7.20;99.90;;;;;;4868097;29;20608;-81
2022/05/02 05:28:56;;;;;;;9.05;6.50;;;7.30;99.90;;;;;;4870596;29;20017;-80
2022/05/02 05:31:52;;;;;;;9.70;6.40;;;7.30;99.90;;;;;;4899152;29;20033;-81
2022/05/02 05:34:55;;;;;;;8.85;6.10;;;7.40;99.90;;;;;;4889483;29;20029;-83
2022/05/02 05:37:27;;;;;;;7.78;5.68;;;7.50;99.90;;;;;;4840645;29;20045;-85
2022/05/02 05:40:38;;;;;;;7.80;5.75;;;7.60;99.90;;;;;;4903506;29;20032;-84
2022/05/02 05:43:12;;;;;;;7.75;6.47;;;7.70;99.90;;;;;;4875983;29;20029;-84
2022/05/02 05:46:00;;;;;;;8.90;6.50;;;7.80;99.90;;;;;;4893872;29;20064;-85
2022/05/02 05:48:40;;;;;;;8.30;6.38;;;7.90;99.90;;;;;;4894046;29;20032;-82
2022/05/02 05:51:18;;;;;;;8.00;6.20;;;7.90;99.90;;;;;;4899046;29;20036;-82
2022/05/02 05:54:11;;;;;;;7.70;6.25;;;8.00;99.90;;;;;;4896869;29;20110;-83
2022/05/02 05:56:47;;;;;;;8.40;6.25;;;8.10;99.90;;;;;;4873399;29;20904;-83
2022/05/02 05:59:48;;;;;;;9.68;6.88;;;8.20;99.90;;;;;;4891727;29;20029;-84
2022/05/02 06:02:19;;;;;;;8.88;6.35;;;8.30;99.90;;;;;;4897981;29;20028;-86
2022/05/02 06:04:49;;;;;;;9.10;7.07;;;8.50;99.90;;;;;;4883222;29;20025;-83
2022/05/02 06:07:20;;;;;;;8.52;6.65;;;8.50;99.90;;;;;;4882548;29;20112;-83
2022/05/02 06:09:48;;;;;;;8.18;6.50;;;8.70;99.90;;;;;;4892937;29;20101;-83
2022/05/02 06:12:15;;;;;;;10.27;7.13;;;8.80;99.90;;;;;;4897357;29;20053;-85
2022/05/02 06:20:28;;;;;;;9.18;7.05;;;9.10;99.90;;;;;;4881677;29;20044;-82
2022/05/02 06:22:54;;;;;;;9.30;6.68;;;9.20;99.90;;;;;;4893780;29;20029;-82
2022/05/02 06:25:23;;;;;;;8.70;6.72;;;9.30;99.90;;;;;;4871058;29;20025;-82
2022/05/02 06:27:50;;;;;;;10.77;7.88;;;9.40;99.90;;;;;;4891378;29;20033;-83
2022/05/02 06:30:16;;;;;;;10.20;7.18;;;9.50;99.90;;;;;;4879356;29;20022;-81
2022/05/02 06:32:44;;;;;;;9.50;7.20;;;9.60;99.90;;;;;;4893990;29;20028;-83
2022/05/02 06:35:10;;;;;;;9.32;6.82;;;9.70;99.90;;;;;;4885773;29;20025;-82
2022/05/02 06:37:56;;;;;;;10.20;7.32;;;9.80;99.90;;;;;;4881722;29;20051;-82
2022/05/02 06:40:44;;;;;;;8.38;7.18;;;9.90;99.90;;;;;;4878647;29;20025;-83
2022/05/02 06:43:36;;;;;;;9.07;6.68;;;10.10;99.90;;;;;;4870418;29;20053;-81
2022/05/02 06:46:22;;;;;;;8.52;6.82;;;10.10;99.90;;;;;;4880904;29;20078;-82
2022/05/02 06:48:57;;;;;;;9.05;6.93;;;10.20;99.90;;;;;;4881461;29;20393;-82
2022/05/02 06:51:35;;;;;;;9.57;6.60;;;10.40;99.90;;;;;;4886623;29;20025;-84
2022/05/02 06:54:19;;;;;;;8.80;6.40;;;10.40;99.90;;;;;;4882839;29;20516;-84
2022/05/02 06:56:50;;;;;;;8.13;6.20;;;10.50;99.90;;;;;;4868790;29;20032;-85
2022/05/02 06:59:36;;;;;;;7.75;5.93;;;10.70;99.90;;;;;;4881216;29;20079;-84
2022/05/02 07:02:30;;;;;;;7.70;5.72;;;10.70;99.90;;;;;;4891451;29;20033;-85
2022/05/02 07:04:56;;;;;;;9.10;6.10;;;10.80;99.90;;;;;;4871510;29;20392;-84
2022/05/02 07:07:36;;;;;;;8.00;5.72;;;10.90;99.90;;;;;;4881240;29;20051;-84
2022/05/02 07:10:06;;;;;;;7.20;5.57;;;11.00;99.90;;;;;;4880505;29;20040;-83
2022/05/02 07:12:40;;;;;;;7.70;6.00;;;11.10;99.90;;;;;;4865240;29;20380;-85
2022/05/02 07:15:12;;;;;;;8.10;5.95;;;11.20;99.90;;;;;;4886840;29;20021;-84
2022/05/02 07:17:52;;;;;;;7.00;5.18;;;11.30;99.90;;;;;;4860980;29;20108;-85
2022/05/02 07:20:46;;;;;;;7.70;5.30;;;11.40;99.90;;;;;;4878711;29;20033;-83
2022/05/02 07:23:37;;;;;;;7.20;5.45;;;11.50;99.90;;;;;;4868743;29;20076;-82
2022/05/02 07:26:07;;;;;;;6.82;5.28;;;11.50;99.90;;;;;;4879074;29;20116;-83
2022/05/02 07:28:44;;;;;;;6.82;5.15;;;11.70;99.90;;;;;;4895958;29;20113;-84
2022/05/02 07:31:12;;;;;;;6.72;5.07;;;11.70;99.90;;;;;;4889850;29;20051;-84
2022/05/02 07:33:40;;;;;;;5.63;4.32;;;11.80;99.90;;;;;;4879302;29;20029;-80
2022/05/02 07:36:06;;;;;;;6.60;4.55;;;11.90;99.90;;;;;;4880734;29;20065;-82
2022/05/02 07:38:36;;;;;;;6.53;4.90;;;11.90;99.90;;;;;;4890816;29;20021;-84
2022/05/02 07:41:22;;;;;;;5.10;4.32;;;12.00;99.90;;;;;;4877271;29;20571;-84
2022/05/02 07:43:50;;;;;;;6.90;4.65;;;12.10;99.90;;;;;;4859498;29;20033;-83
2022/05/02 07:46:43;;;;;;;7.85;5.10;;;12.20;99.90;;;;;;4875710;29;20428;-84
2022/05/02 07:49:13;;;;;;;7.10;4.93;;;12.30;99.90;;;;;;4877366;29;20105;-84
2022/05/02 07:51:42;;;;;;;8.77;6.70;;;12.40;99.90;;;;;;4877931;29;20553;-85
2022/05/02 07:54:14;;;;;;;8.65;6.80;;;12.40;99.90;;;;;;4885308;29;20151;-83
2022/05/02 07:56:41;;;;;;;6.85;5.30;;;12.50;99.90;;;;;;4875635;29;20041;-83
2022/05/02 07:59:08;;;;;;;8.98;6.22;;;12.60;99.90;;;;;;4885233;29;20033;-83
2022/05/02 08:01:38;;;;;;;7.47;5.15;;;12.70;99.90;;;;;;4883778;29;20404;-84
2022/05/02 08:04:04;;;;;;;7.32;5.60;;;12.80;99.90;;;;;;4875757;29;20036;-83
2022/05/02 08:06:43;;;;;;;9.00;5.85;;;12.80;99.90;;;;;;4874852;29;20033;-81
2022/05/02 08:09:15;;;;;;;9.27;5.60;;;12.90;99.90;;;;;;4864302;29;20785;-82
2022/05/02 08:11:48;;;;;;;6.90;5.78;;;13.00;99.90;;;;;;4875306;29;20033;-82
2022/05/02 08:14:16;;;;;;;;;;;13.10;99.90;;;;;;4875504;29;20480;-83
2022/05/02 08:17:07;;;;;;;7.35;5.13;;;13.20;99.90;;;;;;4875199;29;19920;-85
2022/05/02 08:19:46;;;;;;;8.90;5.78;;;13.20;99.90;;;;;;4874782;29;20523;-82
2022/05/02 08:28:41;;;;;;;7.20;4.93;;;13.50;99.90;;;;;;4874972;29;20157;-84
2022/05/02 08:31:20;;;;;;;8.00;5.47;;;13.60;99.90;;;;;;4885841;29;20473;-84
2022/05/02 08:34:24;;;;;;;6.60;5.03;;;13.60;99.90;;;;;;4869132;29;20135;-82
2022/05/02 08:37:13;;;;;;;7.45;4.68;;;13.70;99.90;;;;;;4847480;29;20049;-84
2022/05/02 08:40:09;;;;;;;7.80;4.57;;;13.80;99.90;;;;;;4864267;29;20049;-82
2022/05/02 08:42:47;;;;;;;7.65;5.97;;;13.90;99.90;;;;;;4860126;29;20089;-81
2022/05/02 08:45:33;;;;;;;8.65;5.97;;;14.00;99.90;;;;;;4883078;29;20088;-83
2022/05/02 08:48:20;;;;;;;9.13;6.85;;;14.10;99.90;;;;;;4870344;29;20674;-81
2022/05/02 08:51:11;;;;;;;8.45;5.88;;;14.20;99.90;;;;;;4871316;29;20750;-81
2022/05/02 08:53:58;;;;;;;7.57;6.10;;;14.30;99.90;;;;;;4874007;29;20092;-80
2022/05/02 08:56:45;;;;;;;7.25;5.55;;;14.40;99.90;;;;;;4874549;29;20093;-81
2022/05/02 08:59:52;;;;;;;7.07;5.15;;;14.60;99.90;;;;;;4875308;29;20036;-81
2022/05/02 09:02:48;;;;;;;7.45;4.97;;;14.70;99.90;;;;;;4877805;29;20025;-83
2022/05/02 09:05:35;;;;;;;7.90;5.47;;;14.90;99.90;;;;;;4883555;29;20555;-81
2022/05/02 09:08:08;;;;;;;10.35;6.78;;;15.00;99.90;;;;;;4877936;29;20081;-80
2022/05/02 09:10:56;;;;;;;8.23;6.40;;;15.10;99.90;;;;;;4876824;29;20081;-80
2022/05/02 09:13:42;;;;;;;7.78;6.13;;;15.20;99.90;;;;;;4868548;29;20060;-81
2022/05/02 09:16:33;;;;;;;8.38;6.78;;;15.30;99.90;;;;;;4878965;29;20049;-81
2022/05/02 09:19:01;;;;;;;9.00;6.50;;;15.40;99.90;;;;;;4880631;29;20097;-81
2022/05/02 09:21:59;;;;;;;8.15;6.30;;;15.40;99.90;;;;;;4881629;29;20034;-80
2022/05/02 09:24:53;;;;;;;8.80;6.75;;;15.40;99.80;;;;;;4862302;29;20025;-81
2022/05/02 09:27:25;;;;;;;7.80;6.00;;;15.40;99.60;;;;;;4884254;29;20060;-83
2022/05/02 09:30:18;;;;;;;8.82;7.13;;;15.50;99.50;;;;;;4872828;29;20034;-83
2022/05/02 09:32:48;;;;;;;10.32;7.95;;;15.70;99.10;;;;;;4859632;29;20037;-83
2022/05/02 09:35:18;;;;;;;8.65;6.38;;;16.30;98.90;;;;;;4868893;29;20037;-82
2022/05/02 09:37:59;;;;;;;10.27;5.97;;;17.60;98.40;;;;;;4877173;29;20575;-81
2022/05/02 09:40:35;;;;;;;8.95;6.25;;;18.90;97.50;;;;;;4875751;29;20076;-81
2022/05/02 09:49:33;;;;;;;5.95;4.80;;;20.00;96.40;;;;;;4877570;29;20032;-82
2022/05/02 09:50:00;;;;;;;5.90;4.60;;;21.80;94.00;;;;;;4877755;29;20087;-82
2022/05/02 09:52:38;;;;;;;4.97;3.88;;;22.50;93.30;;;;;;4877124;29;20100;-83
2022/05/02 09:58:10;;;;;;;7.20;3.92;;;23.60;91.30;;;;;;4877769;29;20068;-83
2022/05/02 10:01:11;;;;;;;6.25;5.05;;;23.90;90.40;;;;;;4877132;29;20032;-83
2022/05/02 10:03:38;;;;;;;5.60;4.57;;;24.30;88.50;;;;;;4879334;29;20041;-84
2022/05/02 10:06:04;;;;;;;6.30;4.97;;;24.20;86.40;;;;;;4873918;29;20037;-82
2022/05/02 10:08:57;;;;;;;7.80;3.83;;;23.20;84.60;;;;;;4876133;29;20025;-81
2022/05/02 10:11:40;;;;;;;5.57;4.47;;;22.20;86.40;;;;;;4891339;29;20106;-80
2022/05/02 10:14:38;;;;;;;7.70;5.18;;;21.60;86.20;;;;;;4875995;29;20045;-81
2022/05/02 10:17:10;;;;;;;7.40;5.43;;;21.20;86.30;;;;;;4887060;29;20473;-79
2022/05/02 10:19:54;;;;;;;6.15;4.70;;;21.60;85.60;;;;;;4877757;29;20074;-87
2022/05/02 10:22:35;;;;;;;6.10;4.18;;;22.50;84.90;;;;;;4877666;29;20515;-87
2022/05/02 10:25:32;;;;;;;7.43;4.88;;;23.10;82.50;;;;;;4879897;29;20054;-84
2022/05/02 10:28:27;;;;;;;6.50;5.28;;;22.40;82.00;;;;;;4882844;29;20031;-84
2022/05/02 10:31:10;;;;;;;5.10;4.03;;;21.90;82.50;;;;;;4868137;29;20039;-87
2022/05/02 10:33:48;;;;;;;8.38;4.45;;;22.50;82.70;;;;;;4890370;29;20033;-88
2022/05/02 10:36:15;;;;;;;5.70;4.38;;;23.50;81.40;;;;;;4891924;29;20128;-86
2022/05/02 10:38:55;;;;;;;5.68;4.03;;;24.10;79.20;;;;;;4877963;29;20469;-86
2022/05/02 10:41:27;;;;;;;5.22;3.75;;;24.70;79.90;;;;;;4879439;29;20033;-86
2022/05/02 10:44:04;;;;;;;4.67;3.30;;;25.30;78.60;;;;;;4872581;29;20025;-85
2022/05/02 10:46:31;;;;;;;6.72;3.67;;;25.70;78.00;;;;;;4863470;29;20077;-87
2022/05/02 10:49:14;;;;;;;5.45;4.45;;;25.50;77.00;;;;;;4886420;29;20113;-88
2022/05/02 10:52:00;;;;;;;4.68;3.53;;;25.20;74.90;;;;;;4883376;29;20036;-88
2022/05/02 10:54:48;;;;;;;7.93;5.03;;;25.20;75.70;;;;;;4865931;29;20033;-90
2022/05/02 10:57:30;;;;;;;5.80;4.57;;;24.70;73.90;;;;;;4890148;29;20033;-88
2022/05/02 11:00:04;;;;;;;5.50;4.80;;;23.60;74.30;;;;;;4880812;29;20056;-87
2022/05/02 11:02:56;;;;;;;7.28;5.90;;;23.00;74.60;;;;;;4880685;29;20029;-88
2022/05/02 11:05:35;;;;;;;7.88;5.55;;;23.10;73.70;;;;;;4886822;29;20038;-88
2022/05/02 11:08:30;;;;;;;5.80;4.60;;;23.70;72.80;;;;;;4888251;29;20033;-88
2022/05/02 11:11:06;;;;;;;8.35;4.20;;;24.40;73.00;;;;;;4855385;29;20036;-88
2022/05/02 11:13:53;;;;;;;5.95;4.30;;;25.10;72.10;;;;;;4883712;29;20383;-86
2022/05/02 11:16:32;;;;;;;5.85;4.40;;;25.20;71.40;;;;;;4865703;29;20037;-89
2022/05/02 11:22:35;;;;;;;4.93;3.50;;;26.30;69.70;;;;;;4879133;29;20195;-88
2022/05/02 11:25:34;;;;;;;6.90;4.30;;;27.00;69.70;;;;;;4883631;29;20117;-89
2022/05/02 11:28:09;;;;;;;7.28;4.93;;;27.30;65.80;;;;;;4885970;29;20045;-88
2022/05/02 11:31:06;;;;;;;5.75;3.80;;;26.80;65.50;;;;;;4887505;29;20490;-89
2022/05/02 11:33:41;;;;;;;4.57;3.53;;;26.90;66.80;;;;;;4879024;29;20029;-85
2022/05/02 11:36:10;;;;;;;4.13;3.55;;;27.30;67.10;;;;;;4895147;29;20186;-89
2022/05/02 11:38:49;;;;;;;5.88;4.00;;;27.70;65.90;;;;;;4878287;29;20051;-86
2022/05/02 11:41:17;;;;;;;4.80;4.20;;;27.20;65.10;;;;;;4869227;29;20040;-83
2022/05/02 11:43:45;;;;;;;5.30;4.35;;;26.20;64.90;;;;;;4881214;29;20030;-86
2022/05/02 11:46:20;;;;;;;5.07;4.20;;;25.70;67.00;;;;;;4889591;29;20033;-87
2022/05/02 11:49:12;;;;;;;6.05;4.20;;;25.90;67.00;;;;;;4880643;29;20021;-88
2022/05/02 11:51:48;;;;;;;5.43;3.92;;;26.20;66.60;;;;;;4884543;29;20060;-86
2022/05/02 11:54:36;;;;;;;7.38;3.97;;;26.20;66.10;;;;;;4884262;29;20158;-85
2022/05/02 11:57:22;;;;;;;6.53;5.35;;;25.50;65.40;;;;;;4878855;29;20060;-85
2022/05/02 12:00:14;;;;;;;5.40;3.95;;;25.60;63.80;;;;;;4880971;29;20029;-86
2022/05/02 12:03:03;;;;;;;6.43;5.60;;;26.10;64.80;;;;;;4868822;29;20097;-85
2022/05/02 12:05:52;;;;;;;5.63;4.13;;;26.60;64.00;;;;;;4868145;29;20478;-83
2022/05/02 12:08:34;;;;;;;4.35;3.60;;;27.20;65.10;;;;;;4874621;29;20032;-84
2022/05/02 12:11:05;;;;;;;6.40;4.63;;;27.90;64.70;;;;;;4885248;29;20123;-84
2022/05/02 12:13:40;;;;;;;6.00;5.07;;;28.30;64.10;;;;;;4866734;29;20033;-83
2022/05/02 12:16:12;;;;;;;4.80;3.75;;;28.40;62.50;;;;;;4876045;29;20044;-84
2022/05/02 12:18:46;;;;;;;4.60;3.70;;;28.40;62.70;;;;;;4874594;29;20812;-83
2022/05/02 12:21:31;;;;;;;4.82;3.65;;;28.60;62.70;;;;;;4864276;29;20163;-83
2022/05/02 12:23:58;;;;;;;5.68;4.15;;;29.00;62.70;;;;;;4877728;29;20867;-83
2022/05/02 12:26:25;;;;;;;5.25;4.50;;;29.30;61.60;;;;;;4886839;29;20170;-83
2022/05/02 12:29:01;;;;;;;4.68;3.63;;;28.70;59.90;;;;;;4878388;29;20084;-84
2022/05/02 12:31:30;;;;;;;6.28;4.28;;;27.80;61.20;;;;;;4881905;29;20542;-81
2022/05/02 12:34:09;;;;;;;6.18;4.25;;;27.90;61.90;;;;;;4877028;29;20035;-82
2022/05/02 12:36:49;;;;;;;5.80;4.40;;;28.40;60.50;;;;;;4863565;29;20511;-82
2022/05/02 12:39:26;;;;;;;4.57;3.47;;;27.60;60.40;;;;;;4878793;29;20044;-82
2022/05/02 12:42:15;;;;;;;5.25;3.33;;;26.60;61.60;;;;;;4887992;29;20025;-82
2022/05/02 12:44:57;;;;;;;6.68;4.60;;;25.70;62.40;;;;;;4864209;29;20021;-82
2022/05/02 12:47:24;;;;;;;4.95;4.07;;;25.00;64.40;;;;;;4878247;29;20492;-82
2022/05/02 12:50:16;;;;;;;6.55;3.63;;;24.40;65.80;;;;;;4887240;29;20033;-83
2022/05/02 12:52:56;;;;;;;6.35;4.22;;;23.80;65.80;;;;;;4849779;29;20567;-82
2022/05/02 12:55:23;;;;;;;5.00;4.35;;;23.40;66.70;;;;;;4877782;29;20515;-82
2022/05/02 13:00:45;;;;;;;5.45;3.60;;;25.30;66.50;;;;;;4890740;29;20531;-84
2022/05/02 13:03:10;;;;;;;3.53;2.80;;;26.40;65.20;;;;;;4879254;29;20033;-87
2022/05/02 13:05:40;;;;;;;4.57;3.50;;;27.00;64.90;;;;;;4883135;29;20029;-88
2022/05/02 13:08:13;;;;;;;4.35;3.72;;;27.50;63.80;;;;;;4862343;29;20148;-83
2022/05/02 13:10:40;;;;;;;5.00;3.13;;;27.90;64.00;;;;;;4890842;29;20044;-85
2022/05/02 13:13:07;;;;;;;5.47;4.47;;;28.30;64.00;;;;;;4879384;29;20540;-87
2022/05/02 13:15:48;;;;;;;6.07;4.63;;;28.50;62.20;;;;;;4861718;29;20696;-83
2022/05/02 13:18:19;;;;;;;4.55;3.35;;;28.70;60.60;;;;;;4877614;29;20039;-84
2022/05/02 13:21:00;;;;;;;4.00;3.42;;;28.70;61.00;;;;;;4875452;29;20500;-85
2022/05/02 13:23:44;;;;;;;5.50;3.20;;;28.90;61.50;;;;;;4879103;29;20539;-84
2022/05/02 13:26:19;;;;;;;4.15;3.33;;;29.30;61.80;;;;;;4876409;29;20099;-86
2022/05/02 13:28:45;;;;;;;4.43;3.33;;;29.40;60.60;;;;;;4889304;29;20377;-85
2022/05/02 13:31:46;;;;;;;6.18;3.42;;;29.50;60.40;;;;;;4877509;29;20066;-86
2022/05/02 13:34:31;;;;;;;4.20;3.13;;;29.90;59.60;;;;;;4846911;29;20125;-84
2022/05/02 13:37:28;;;;;;;5.55;3.60;;;30.10;59.50;;;;;;4892340;29;20025;-85
2022/05/02 13:40:02;;;;;;;5.00;4.00;;;30.20;57.70;;;;;;4880685;29;20475;-87
2022/05/02 13:42:50;;;;;;;5.18;3.55;;;29.90;57.40;;;;;;4872505;29;20034;-85
2022/05/02 13:45:19;;;;;;;5.25;3.70;;;28.80;57.60;;;;;;4880816;29;20048;-84
2022/05/02 13:47:56;;;;;;;5.15;4.18;;;27.70;58.40;;;;;;4905080;29;20057;-84
2022/05/02 13:50:26;;;;;;;5.95;3.97;;;26.80;58.90;;;;;;4888957;29;20507;-85
2022/05/02 13:53:11;;;;;;;7.78;4.60;;;26.00;59.60;;;;;;4894655;29;20056;-87
2022/05/02 13:55:39;;;;;;;5.47;4.07;;;25.20;59.80;;;;;;4881375;29;20037;-83
2022/05/02 13:58:24;;;;;;;5.07;4.45;;;24.60;61.70;;;;;;4896458;29;20096;-82
2022/05/02 14:01:32;;;;;;;6.57;4.10;;;24.10;61.80;;;;;;4874117;29;20037;-83
2022/05/02 14:09:39;;;;;;;4.72;3.40;;;22.80;62.90;;;;;;4878164;29;20448;-84